This is the latest recevied weather packets stored in our database for station/object KE5KUL-13. If no packets are shown the sender has not sent any weather packets the latest 10 day(s).
| Time | Temp. | Humidity | Pressure | Rain* | Wind** | Luminosity | Snow |
|---|---|---|---|---|---|---|---|
| 1777757417 | 26.11° C | 16% | 1022.9 hPa | 0 mm | - | - | - |
| 1777756819 | 26.11° C | 16% | 1023.1 hPa | 0 mm | - | - | - |
| 1777756217 | 27.22° C | 15% | 1023.6 hPa | 0 mm | - | - | - |
| 1777755619 | 28.33° C | 15% | 1023.9 hPa | 0 mm | - | - | - |
| 1777755019 | 27.78° C | 16% | 1024.1 hPa | 0 mm | - | - | - |
| 1777754419 | 28.33° C | 15% | 1024.3 hPa | 0 mm | - | - | - |
| 1777753819 | 27.78° C | 16% | 1024.4 hPa | 0 mm | - | - | - |
| 1777753219 | 27.78° C | 15% | 1024.6 hPa | 0 mm | - | - | - |
| 1777752619 | 28.33° C | 16% | 1024.9 hPa | 0 mm | - | - | - |
| 1777752019 | 27.78° C | 15% | 1024.9 hPa | 0 mm | - | - | - |
| 1777751419 | 27.22° C | 17% | 1024.7 hPa | 0 mm | - | - | - |
| 1777750819 | 26.67° C | 17% | 1024.9 hPa | 0 mm | - | - | - |
| 1777750218 | 27.22° C | 16% | 1025.4 hPa | 0 mm | - | - | - |
| 1777749618 | 26.67° C | 16% | 1025.3 hPa | 0 mm | - | - | - |
| 1777749019 | 27.22° C | 15% | 1025.4 hPa | 0 mm | - | - | - |
| 1777748417 | 27.78° C | 15% | 1025.9 hPa | 0 mm | - | - | - |
| 1777747818 | 27.22° C | 17% | 1025.8 hPa | 0 mm | - | - | - |
| 1777747218 | 26.11° C | 18% | 1026 hPa | 0 mm | - | - | - |
| 1777746618 | 26.11° C | 17% | 1026.2 hPa | 0 mm | - | - | - |
| 1777746019 | 25.56° C | 19% | 1026 hPa | 0 mm | - | - | - |
| 1777745419 | 25.56° C | 20% | 1026.3 hPa | 0 mm | - | - | - |
| 1777744819 | 23.89° C | 21% | 1026 hPa | 0 mm | - | - | - |
| 1777744219 | 23.89° C | 21% | 1026.1 hPa | 0 mm | - | - | - |
| 1777743618 | 24.44° C | 20% | 1026.2 hPa | 0 mm | - | - | - |
| 1777743018 | 23.89° C | 21% | 1026.3 hPa | 0 mm | - | - | - |
* Rain latest hour (hover to see other rain measurements)
** Current wind speed in m/s (hover to see current wind gust speed)